Time;durP1;ratioP1;P1;durP2;ratioP2;P2;SDS_P1;SDS_P2;PMS_P1;PMS_P2;Temp;Humidity;BMP_temperature;BMP_pressure;BME280_temperature;BME280_humidity;BME280_pressure;Samples;Min_cycle;Max_cycle;Signal;HPM_P1;HPM_P2
2022/05/24 00:00:09;;;;;;;58.95;14.95;;;17.90;1.00;;;;;;5048068;28;20718;-54
2022/05/24 00:02:35;;;;;;;52.35;13.23;;;17.90;89.70;;;;;;5046302;28;20172;-54
2022/05/24 00:05:00;;;;;;;52.40;14.25;;;;;;;;;;5045862;28;20188;-54
2022/05/24 00:07:27;;;;;;;61.80;15.18;;;;;;;;;;5045473;28;20219;-54
2022/05/24 00:09:52;;;;;;;65.00;16.52;;;17.80;1.00;;;;;;5044021;28;20245;-54
2022/05/24 00:12:18;;;;;;;55.90;14.35;;;18.10;99.90;;;;;;5048460;28;20737;-54
2022/05/24 00:17:28;;;;;;;34.90;10.02;;;18.10;99.90;;;;;;5045655;28;20257;-54
2022/05/24 00:19:54;;;;;;;33.50;9.68;;;;;;;;;;5048592;28;20223;-54
2022/05/24 00:22:20;;;;;;;32.88;9.63;;;18.00;99.90;;;;;;5035229;28;20228;-54
2022/05/24 00:24:46;;;;;;;38.90;10.65;;;;;;;;;;5050037;28;20212;-54
2022/05/24 00:27:12;;;;;;;32.65;9.30;;;;;;;;;;5038656;28;20219;-54
2022/05/24 00:29:37;;;;;;;29.13;9.10;;;18.00;99.90;;;;;;5046417;28;20207;-55
2022/05/24 00:32:03;;;;;;;74.03;19.00;;;18.00;1.00;;;;;;5050072;28;20222;-54
2022/05/24 00:34:28;;;;;;;48.58;13.05;;;17.70;99.90;;;;;;5047863;28;20208;-54
2022/05/24 00:36:54;;;;;;;36.50;10.45;;;;;;;;;;5045118;28;20587;-54
2022/05/24 00:39:20;;;;;;;56.53;15.38;;;;;;;;;;5047457;28;20227;-54
2022/05/24 00:42:03;;;;;;;26.80;8.68;;;17.80;1.00;;;;;;5046390;28;20195;-54
2022/05/24 00:44:34;;;;;;;48.15;12.60;;;17.90;1.00;;;;;;5046097;28;20171;-54
2022/05/24 00:47:03;;;;;;;51.42;13.48;;;17.50;1.00;;;;;;5040747;28;20226;-54
2022/05/24 00:49:46;;;;;;;52.50;13.75;;;17.80;1.00;;;;;;5043958;28;20219;-54
2022/05/24 00:52:18;;;;;;;57.42;15.07;;;17.50;1.00;;;;;;5044120;28;20261;-54
2022/05/24 00:54:45;;;;;;;46.70;12.40;;;;;;;;;;5049944;28;20203;-54
2022/05/24 00:57:11;;;;;;;22.92;7.47;;;17.70;1.00;;;;;;5043179;28;20223;-54
2022/05/24 01:00:07;;;;;;;51.22;13.00;;;17.50;71.70;;;;;;5033971;28;20192;-54
2022/05/24 01:02:36;;;;;;;46.00;12.52;;;17.30;1.00;;;;;;5038425;28;20189;-54
2022/05/24 01:05:05;;;;;;;66.63;17.05;;;17.70;99.90;;;;;;5040580;28;20220;-54
2022/05/24 01:07:31;;;;;;;50.80;13.40;;;;;;;;;;5045645;28;20580;-54
2022/05/24 01:10:01;;;;;;;46.85;13.02;;;17.60;1.00;;;;;;5027269;28;20302;-54
2022/05/24 01:12:37;;;;;;;37.05;10.57;;;17.40;99.90;;;;;;5046689;28;20729;-54
2022/05/24 01:15:05;;;;;;;98.07;24.13;;;17.40;1.00;;;;;;5023027;28;20557;-54
2022/05/24 01:17:31;;;;;;;49.42;12.60;;;;;;;;;;5046234;28;20210;-54
2022/05/24 01:19:58;;;;;;;55.28;14.38;;;17.20;1.00;;;;;;5047619;28;20222;-54
2022/05/24 01:22:57;;;;;;;46.67;12.45;;;17.60;1.00;;;;;;5044913;28;20207;-54
2022/05/24 01:25:25;;;;;;;46.85;11.55;;;17.40;1.00;;;;;;5047294;28;20218;-54
2022/05/24 01:27:51;;;;;;;47.63;12.45;;;17.00;99.90;;;;;;5044016;28;20226;-54
2022/05/24 01:30:17;;;;;;;60.33;15.43;;;;;;;;;;5040308;28;20207;-54
2022/05/24 01:38:17;;;;;;;63.72;14.75;;;17.10;64.10;;;;;;5041177;28;20230;-54
2022/05/24 01:40:43;;;;;;;42.03;10.85;;;;;;;;;;5048728;28;20374;-54
2022/05/24 01:43:09;;;;;;;43.42;10.57;;;17.00;1.00;;;;;;5037944;28;20684;-54
2022/05/24 01:45:45;;;;;;;56.95;13.55;;;17.00;99.90;;;;;;5038302;28;20203;-54
2022/05/24 01:48:16;;;;;;;56.55;13.63;;;16.80;90.20;;;;;;5043217;28;20219;-54
2022/05/24 01:50:44;;;;;;;61.63;31.17;;;16.90;99.90;;;;;;5042515;28;20206;-54
2022/05/24 01:53:16;;;;;;;51.92;18.60;;;16.90;99.90;;;;;;5042497;28;20177;-54
2022/05/24 01:55:51;;;;;;;70.30;21.30;;;17.00;99.90;;;;;;5040389;28;20611;-54
2022/05/24 01:58:18;;;;;;;55.22;17.85;;;16.90;99.90;;;;;;5042482;28;20305;-54
2022/05/24 02:00:49;;;;;;;56.47;18.42;;;16.80;99.90;;;;;;5042532;28;20231;-54
2022/05/24 02:03:15;;;;;;;71.30;23.67;;;16.80;1.00;;;;;;5040132;28;20583;-54
2022/05/24 02:05:42;;;;;;;57.08;20.52;;;16.90;99.90;;;;;;5038020;28;20182;-54
2022/05/24 02:08:10;;;;;;;55.95;19.67;;;17.00;99.90;;;;;;5041344;28;20525;-54
2022/05/24 02:10:41;;;;;;;50.65;16.95;;;16.90;1.00;;;;;;5042538;28;20208;-54
2022/05/24 02:13:08;;;;;;;52.22;16.73;;;16.60;1.00;;;;;;5043522;28;20325;-54
2022/05/24 02:15:38;;;;;;;63.00;19.20;;;16.70;1.00;;;;;;5042014;28;20576;-54
2022/05/24 02:18:15;;;;;;;31.13;11.45;;;17.10;99.90;;;;;;5047972;28;20211;-54
2022/05/24 02:20:44;;;;;;;51.80;14.90;;;16.70;99.90;;;;;;5041452;28;20724;-54
2022/05/24 02:23:12;;;;;;;57.10;16.20;;;16.80;1.00;;;;;;5038704;28;20208;-54
2022/05/24 02:25:55;;;;;;;52.78;14.90;;;16.80;99.90;;;;;;5039172;28;20632;-54
2022/05/24 02:28:30;;;;;;;69.45;19.67;;;16.70;1.00;;;;;;5039141;28;20207;-54
2022/05/24 02:31:01;;;;;;;53.03;15.30;;;16.70;1.00;;;;;;5027346;28;20225;-54
2022/05/24 02:33:27;;;;;;;54.47;15.45;;;16.70;99.90;;;;;;5034861;28;20240;-54
2022/05/24 02:35:52;;;;;;;58.83;16.42;;;16.50;1.00;;;;;;5047338;28;20639;-54
2022/05/24 02:38:19;;;;;;;56.80;16.38;;;;;;;;;;5043484;28;20192;-54
2022/05/24 02:43:29;;;;;;;47.92;13.68;;;;;;;;;;5039705;28;20273;-54
2022/05/24 02:45:56;;;;;;;62.00;16.17;;;16.50;1.00;;;;;;5040235;28;20298;-54
2022/05/24 02:48:22;;;;;;;43.47;12.50;;;;;;;;;;5041001;28;20239;-54
2022/05/24 02:50:47;;;;;;;82.93;20.52;;;16.70;99.90;;;;;;5026016;28;20181;-54
2022/05/24 02:53:13;;;;;;;62.10;15.50;;;;;;;;;;5047310;28;20202;-54
2022/05/24 02:55:39;;;;;;;63.88;16.33;;;;;;;;;;5045273;28;20219;-54
2022/05/24 02:58:05;;;;;;;46.75;12.75;;;;;;;;;;5045893;28;20748;-54
2022/05/24 03:00:32;;;;;;;50.88;13.48;;;;;;;;;;5045480;28;20222;-54
2022/05/24 03:02:58;;;;;;;60.47;15.23;;;16.30;99.90;;;;;;5042753;28;20215;-54
2022/05/24 03:05:24;;;;;;;49.13;12.45;;;;;;;;;;5044853;28;20747;-54
2022/05/24 03:10:36;;;;;;;53.85;13.60;;;16.00;1.00;;;;;;5047602;28;20259;-54
2022/05/24 03:15:48;;;;;;;63.53;15.02;;;;;;;;;;5045178;28;20218;-54
2022/05/24 03:18:17;;;;;;;57.25;14.52;;;16.20;1.00;;;;;;5039830;28;20299;-54
2022/05/24 03:20:43;;;;;;;71.05;17.20;;;;;;;;;;5047371;28;20290;-54
2022/05/24 03:23:09;;;;;;;48.72;12.35;;;16.20;99.90;;;;;;5044571;28;20208;-54
2022/05/24 03:25:35;;;;;;;58.63;14.00;;;16.30;99.90;;;;;;5044499;28;20214;-54
2022/05/24 03:28:03;;;;;;;52.80;13.50;;;16.20;99.90;;;;;;5044218;28;20212;-54
2022/05/24 03:30:30;;;;;;;34.85;9.60;;;12.90;1.00;;;;;;5045885;28;20372;-54
2022/05/24 03:32:55;;;;;;;49.63;12.27;;;16.20;1.00;;;;;;5043935;28;20222;-54
2022/05/24 03:35:21;;;;;;;55.35;13.35;;;;;;;;;;5044587;28;20173;-54
2022/05/24 03:37:47;;;;;;;59.00;14.38;;;;;;;;;;5046343;28;20231;-54
2022/05/24 03:40:13;;;;;;;73.00;17.38;;;16.20;87.20;;;;;;5048522;28;20234;-54
2022/05/24 03:42:39;;;;;;;58.42;14.85;;;;;;;;;;5038788;28;20226;-54
2022/05/24 03:45:08;;;;;;;71.50;17.52;;;16.10;1.00;;;;;;5046819;28;20219;-54
2022/05/24 03:47:34;;;;;;;42.72;11.93;;;;;;;;;;5045827;28;20272;-54
2022/05/24 03:50:00;;;;;;;47.72;12.50;;;;;;;;;;5047934;28;20533;-54
2022/05/24 03:52:26;;;;;;;49.40;12.52;;;;;;;;;;5044945;28;20232;-54
2022/05/24 03:54:51;;;;;;;44.05;11.48;;;16.20;1.00;;;;;;5048334;28;20692;-54
2022/05/24 04:00:03;;;;;;;79.55;19.50;;;16.00;1.00;;;;;;5042798;28;20306;-54
2022/05/24 04:02:29;;;;;;;63.40;15.30;;;;;;;;;;5044465;28;20190;-54
2022/05/24 04:04:54;;;;;;;39.47;10.70;;;16.40;99.90;;;;;;5044277;28;20212;-54
2022/05/24 04:07:20;;;;;;;52.42;13.85;;;16.30;1.00;;;;;;5048089;28;20211;-54
2022/05/24 04:09:45;;;;;;;71.40;17.90;;;16.60;99.90;;;;;;5047394;28;20207;-54
2022/05/24 04:12:11;;;;;;;67.88;17.13;;;;;;;;;;5040630;28;20317;-54
2022/05/24 04:14:37;;;;;;;20.30;5.97;;;16.00;99.90;;;;;;5043056;28;20253;-54
2022/05/24 04:17:02;;;;;;;54.95;14.10;;;16.40;1.00;;;;;;5044189;28;20671;-54
2022/05/24 04:19:28;;;;;;;57.67;14.95;;;16.10;1.00;;;;;;5040347;28;20282;-54
2022/05/24 04:21:54;;;;;;;49.58;13.07;;;;;;;;;;5036282;28;20640;-54
2022/05/24 04:24:20;;;;;;;66.40;17.00;;;16.00;99.90;;;;;;5045670;28;20610;-54
2022/05/24 04:26:46;;;;;;;56.67;14.88;;;;;;;;;;5042722;28;20184;-54
2022/05/24 04:29:12;;;;;;;69.13;16.15;;;;;;;;;;5045149;28;20188;-54
2022/05/24 04:31:38;;;;;;;49.42;12.68;;;;;;;;;;5045699;28;20223;-54
2022/05/24 04:34:04;;;;;;;63.83;16.23;;;;;;;;;;5043379;28;20568;-54
2022/05/24 04:36:31;;;;;;;51.28;12.95;;;;;;;;;;5036922;28;20219;-54
2022/05/24 04:38:58;;;;;;;57.75;14.45;;;16.10;1.00;;;;;;5046111;28;20227;-54
2022/05/24 04:44:08;;;;;;;66.18;16.92;;;16.10;1.00;;;;;;5042277;28;20291;-54
2022/05/24 04:49:23;;;;;;;57.65;14.48;;;16.10;1.00;;;;;;5041558;28;20520;-54
2022/05/24 04:51:52;;;;;;;49.80;12.68;;;16.20;99.90;;;;;;5045586;28;20724;-54
2022/05/24 04:54:18;;;;;;;43.85;11.05;;;16.20;1.00;;;;;;5023664;28;20215;-54
2022/05/24 04:56:44;;;;;;;47.42;13.00;;;;;;;;;;5041768;28;20184;-54
2022/05/24 04:59:09;;;;;;;70.25;17.25;;;;;;;;;;5050545;28;20168;-54
2022/05/24 05:01:35;;;;;;;65.63;16.58;;;;;;;;;;5042578;28;20254;-54
2022/05/24 05:04:02;;;;;;;64.35;16.25;;;;;;;;;;5045684;28;20286;-54
2022/05/24 05:06:27;;;;;;;52.42;12.98;;;;;;;;;;5042200;28;20290;-54
2022/05/24 05:08:53;;;;;;;39.30;10.25;;;;;;;;;;5033793;28;20668;-54
2022/05/24 05:11:19;;;;;;;55.85;13.85;;;15.80;11.40;;;;;;5038704;28;20306;-54
2022/05/24 05:13:44;;;;;;;35.88;10.00;;;16.20;24.40;;;;;;5050000;28;20253;-54
2022/05/24 05:16:10;;;;;;;57.60;14.80;;;;;;;;;;5040630;28;20216;-54
2022/05/24 05:18:36;;;;;;;33.60;9.15;;;15.90;33.00;;;;;;5044406;28;20226;-54
2022/05/24 05:21:02;;;;;;;47.85;11.85;;;;;;;;;;5049017;28;20234;-54
2022/05/24 05:23:28;;;;;;;55.58;14.30;;;;;;;;;;5043886;28;20182;-55
2022/05/24 05:25:54;;;;;;;53.88;13.23;;;;;;;;;;5050402;28;20600;-55
2022/05/24 05:28:20;;;;;;;63.60;15.30;;;15.70;67.60;;;;;;5049624;28;20285;-55
2022/05/24 05:33:31;;;;;;;54.78;13.68;;;;;;;;;;5038899;28;20214;-55
2022/05/24 05:35:57;;;;;;;51.15;13.68;;;;;;;;;;5045748;28;20262;-55
2022/05/24 05:38:23;;;;;;;70.90;16.70;;;;;;;;;;5039669;28;20680;-55
2022/05/24 05:40:52;;;;;;;45.78;11.32;;;15.70;90.60;;;;;;5042605;28;20695;-55
2022/05/24 05:43:18;;;;;;;41.53;10.43;;;;;;;;;;5046473;28;20672;-55
2022/05/24 05:45:44;;;;;;;26.88;7.70;;;;;;;;;;5046609;28;20217;-55
2022/05/24 05:48:09;;;;;;;23.73;6.65;;;16.10;91.30;;;;;;5049465;28;20223;-55
2022/05/24 05:50:35;;;;;;;41.00;10.13;;;;;;;;;;5032079;28;20163;-55
2022/05/24 05:53:04;;;;;;;71.00;17.60;;;16.50;99.90;;;;;;5048750;28;20184;-55
2022/05/24 05:55:30;;;;;;;48.40;11.73;;;16.40;92.60;;;;;;5049320;28;20211;-55
2022/05/24 05:57:57;;;;;;;61.53;15.32;;;;;;;;;;5048996;28;20217;-55
2022/05/24 06:00:23;;;;;;;49.58;12.77;;;;;;;;;;5027737;28;20277;-55
2022/05/24 06:02:49;;;;;;;46.88;12.27;;;;;;;;;;5049478;28;20210;-55
2022/05/24 06:05:15;;;;;;;32.08;8.32;;;;;;;;;;5028508;28;20184;-55
2022/05/24 06:07:41;;;;;;;43.90;11.70;;;;;;;;;;5042903;28;20536;-55
2022/05/24 06:10:08;;;;;;;82.10;19.17;;;16.10;99.90;;;;;;5032423;28;20326;-55
2022/05/24 06:12:34;;;;;;;62.80;15.30;;;16.10;99.90;;;;;;5040899;28;20203;-55
2022/05/24 06:15:00;;;;;;;96.00;23.25;;;;;;;;;;5052503;28;20214;-55
2022/05/24 06:17:26;;;;;;;65.97;16.77;;;16.00;99.90;;;;;;5048430;28;20199;-55
2022/05/24 06:19:52;;;;;;;50.10;12.15;;;;;;;;;;5051497;28;20222;-54
2022/05/24 06:22:18;;;;;;;77.40;18.33;;;;;;;;;;5053243;28;20204;-54
2022/05/24 06:24:46;;;;;;;44.70;11.48;;;16.50;99.90;;;;;;5053853;28;20222;-55
2022/05/24 06:27:11;;;;;;;55.08;13.20;;;16.10;99.90;;;;;;5034137;28;20620;-57
2022/05/24 06:29:37;;;;;;;58.35;14.27;;;16.60;99.90;;;;;;5032291;28;20177;-57
2022/05/24 06:32:03;;;;;;;63.55;15.63;;;16.50;99.90;;;;;;5033474;28;20177;-57
2022/05/24 06:34:29;;;;;;;81.68;19.50;;;16.60;99.90;;;;;;5033640;28;20634;-57
2022/05/24 06:36:56;;;;;;;56.00;13.50;;;16.70;99.90;;;;;;5033687;28;20635;-57
2022/05/24 06:39:21;;;;;;;62.53;15.77;;;17.00;99.90;;;;;;5033662;28;20311;-57
2022/05/24 06:41:47;;;;;;;62.13;16.10;;;17.10;99.90;;;;;;5033012;28;20728;-57
2022/05/24 06:44:14;;;;;;;65.70;16.20;;;;;;;;;;5033925;28;20231;-56
2022/05/24 06:46:40;;;;;;;99.85;24.45;;;17.10;99.90;;;;;;5034432;28;20565;-57
2022/05/24 06:49:06;;;;;;;63.88;15.82;;;17.00;99.90;;;;;;5052647;28;20222;-55
2022/05/24 06:51:32;;;;;;;63.97;16.35;;;;;;;;;;5051099;28;20286;-54
2022/05/24 06:53:58;;;;;;;66.93;17.55;;;;;;;;;;5052962;28;20269;-55
2022/05/24 06:56:24;;;;;;;60.70;15.30;;;;;;;;;;5053864;28;20202;-55
2022/05/24 06:58:49;;;;;;;47.85;12.60;;;;;;;;;;5052646;28;20242;-55
2022/05/24 07:04:00;;;;;;;62.80;17.10;;;;;;;;;;5052396;28;20249;-56
2022/05/24 07:06:26;;;;;;;62.42;16.90;;;18.20;99.90;;;;;;5046715;28;20227;-55
2022/05/24 07:08:52;;;;;;;75.78;21.02;;;;;;;;;;5041632;28;20177;-56
2022/05/24 07:11:19;;;;;;;55.15;14.68;;;18.30;99.90;;;;;;5051084;28;20207;-55
2022/05/24 07:13:45;;;;;;;59.53;16.20;;;18.30;99.90;;;;;;5043933;28;20216;-55
2022/05/24 07:16:12;;;;;;;69.82;18.88;;;;;;;;;;5047948;28;20222;-55
2022/05/24 07:18:38;;;;;;;69.07;19.48;;;18.30;99.90;;;;;;5050992;28;20284;-56
2022/05/24 07:21:04;;;;;;;107.05;27.75;;;18.30;99.90;;;;;;5044330;28;20223;-56
2022/05/24 07:23:37;;;;;;;56.88;16.20;;;18.80;99.90;;;;;;5048979;28;20195;-56
2022/05/24 07:26:15;;;;;;;26.13;9.00;;;18.70;99.90;;;;;;5054178;28;20223;-55
2022/05/24 07:28:40;;;;;;;65.05;18.63;;;18.90;99.90;;;;;;5044701;28;20269;-55
2022/05/24 07:31:06;;;;;;;51.85;15.30;;;;;;;;;;5052369;28;20687;-55
2022/05/24 07:33:32;;;;;;;57.67;17.08;;;;;;;;;;5051478;28;20208;-55
2022/05/24 07:35:58;;;;;;;54.10;16.80;;;;;;;;;;5052087;28;20265;-55
2022/05/24 07:38:24;;;;;;;53.40;17.13;;;;;;;;;;5052222;28;20199;-55
2022/05/24 07:46:18;;;;;;;69.28;20.85;;;;;;;;;;5050027;28;20214;-55
2022/05/24 07:48:44;;;;;;;66.63;20.67;;;;;;;;;;5048270;28;20618;-55
2022/05/24 07:51:10;;;;;;;53.13;18.48;;;;;;;;;;5051583;28;20200;-55
2022/05/24 07:53:37;;;;;;;50.42;19.00;;;19.30;99.90;;;;;;5047911;28;20230;-55
2022/05/24 07:56:03;;;;;;;67.30;24.10;;;;;;;;;;5052337;28;20517;-55
2022/05/24 07:58:29;;;;;;;57.20;22.05;;;19.60;99.90;;;;;;5050782;28;20318;-55
2022/05/24 08:00:56;;;;;;;35.10;17.08;;;19.70;99.90;;;;;;5049309;28;20314;-55
2022/05/24 08:03:22;;;;;;;68.28;24.85;;;19.40;99.90;;;;;;5050899;28;20239;-55
2022/05/24 08:05:48;;;;;;;54.60;20.42;;;19.20;99.90;;;;;;5050656;28;20546;-55
2022/05/24 08:08:14;;;;;;;49.10;19.33;;;;;;;;;;5051684;28;20191;-55
2022/05/24 08:10:41;;;;;;;61.30;20.77;;;19.30;99.90;;;;;;5051312;28;20208;-55
2022/05/24 08:13:13;;;;;;;52.75;18.15;;;19.20;99.90;;;;;;5044550;28;20220;-55
2022/05/24 08:15:38;;;;;;;51.40;18.20;;;19.00;99.90;;;;;;5045186;28;20608;-55
2022/05/24 08:18:05;;;;;;;48.20;18.63;;;18.60;99.90;;;;;;5047585;28;20314;-55
2022/05/24 08:20:31;;;;;;;52.85;18.70;;;19.10;99.90;;;;;;5046840;28;20635;-55
2022/05/24 08:22:58;;;;;;;55.25;21.95;;;19.40;99.90;;;;;;5050490;28;20207;-55
2022/05/24 08:25:25;;;;;;;51.80;21.67;;;19.30;99.90;;;;;;5050930;28;20211;-55
2022/05/24 08:27:51;;;;;;;57.08;21.67;;;19.20;99.90;;;;;;5050789;28;20237;-55
2022/05/24 08:30:17;;;;;;;41.50;19.67;;;19.20;99.90;;;;;;5051374;28;20725;-55
2022/05/24 08:32:43;;;;;;;60.90;24.27;;;19.80;99.90;;;;;;5051261;28;20326;-55
2022/05/24 08:35:11;;;;;;;62.17;24.67;;;19.80;99.80;;;;;;5043575;28;20215;-55
2022/05/24 08:37:38;;;;;;;71.00;27.92;;;20.00;96.70;;;;;;5050562;28;20212;-55
2022/05/24 08:40:04;;;;;;;100.35;36.72;;;20.20;94.30;;;;;;5026791;28;20216;-55
2022/05/24 08:43:09;;;;;;;29.88;18.02;;;20.00;67.10;;;;;;5049298;28;20304;-55
2022/05/24 08:48:52;;;;;;;65.53;28.67;;;20.70;42.20;;;;;;5044587;28;20214;-55
2022/05/24 08:51:39;;;;;;;83.93;32.33;;;20.50;1.00;;;;;;5046767;28;20565;-55
2022/05/24 08:54:12;;;;;;;62.95;29.48;;;20.60;1.00;;;;;;5049898;28;20223;-55
2022/05/24 08:56:48;;;;;;;59.13;28.08;;;20.80;4.70;;;;;;5050618;28;20164;-55
2022/05/24 08:59:32;;;;;;;44.80;25.00;;;20.70;49.70;;;;;;5051036;28;20191;-55
2022/05/24 09:01:59;;;;;;;55.15;26.83;;;20.50;15.00;;;;;;5050361;28;20247;-54
2022/05/24 09:04:25;;;;;;;57.75;31.42;;;20.50;50.90;;;;;;5050521;28;20260;-54
2022/05/24 09:07:16;;;;;;;68.80;35.85;;;20.50;31.20;;;;;;5050103;28;20298;-54
2022/05/24 09:10:09;;;;;;;56.40;32.53;;;20.50;11.90;;;;;;5050566;28;20659;-54
2022/05/24 09:12:53;;;;;;;51.50;31.85;;;20.90;1.00;;;;;;5047324;28;20281;-54
2022/05/24 09:15:31;;;;;;;68.63;37.53;;;20.80;1.00;;;;;;5050222;28;20679;-54
2022/05/24 09:18:00;;;;;;;73.50;39.75;;;20.70;1.00;;;;;;5049368;28;20307;-54
2022/05/24 09:20:26;;;;;;;60.25;34.58;;;21.10;1.00;;;;;;5046874;28;20199;-53
2022/05/24 09:23:31;;;;;;;66.15;37.38;;;20.90;1.00;;;;;;5049662;28;20219;-53
2022/05/24 09:26:10;;;;;;;59.15;30.50;;;20.70;1.00;;;;;;5041904;28;20211;-53
2022/05/24 09:28:48;;;;;;;56.95;33.45;;;21.00;1.00;;;;;;5048113;28;20222;-54
2022/05/24 09:31:38;;;;;;;87.95;44.97;;;20.80;1.00;;;;;;5048098;28;20215;-54
2022/05/24 09:34:26;;;;;;;82.43;47.53;;;20.90;1.00;;;;;;5049580;28;20212;-54
2022/05/24 09:36:56;;;;;;;44.60;37.60;;;20.80;99.90;;;;;;5049223;28;20700;-53
2022/05/24 09:39:26;;;;;;;52.45;37.15;;;21.30;99.90;;;;;;5050029;28;20223;-53
2022/05/24 09:42:09;;;;;;;55.30;45.33;;;21.30;1.00;;;;;;5046356;28;20188;-53
2022/05/24 09:44:56;;;;;;;70.28;48.25;;;21.70;1.00;;;;;;5049470;28;20664;-53
2022/05/24 09:47:41;;;;;;;110.93;60.10;;;21.40;99.90;;;;;;5041268;28;20203;-53
2022/05/24 09:50:18;;;;;;;80.32;53.40;;;21.60;1.00;;;;;;5049641;28;20283;-54
2022/05/24 09:53:02;;;;;;;48.13;43.05;;;21.40;1.00;;;;;;5019874;28;20478;-53
2022/05/24 09:55:29;;;;;;;55.58;45.70;;;21.50;1.00;;;;;;5032235;28;20303;-53
2022/05/24 09:58:16;;;;;;;60.22;54.13;;;21.80;1.00;;;;;;5046987;28;20227;-55
2022/05/24 10:01:01;;;;;;;69.97;61.55;;;21.90;1.00;;;;;;5036667;28;20774;-53
2022/05/24 10:03:30;;;;;;;130.65;82.25;;;22.20;99.90;;;;;;5031173;28;20212;-53
2022/05/24 10:06:03;;;;;;;82.72;67.95;;;22.20;59.60;;;;;;5045713;28;20223;-53
2022/05/24 10:08:35;;;;;;;96.85;86.72;;;22.60;49.70;;;;;;5029841;28;20290;-53
2022/05/24 10:11:02;;;;;;;90.72;82.35;;;22.70;1.00;;;;;;5037421;28;20207;-53
2022/05/24 10:13:50;;;;;;;87.10;79.47;;;23.00;99.90;;;;;;5048687;28;20222;-53
2022/05/24 10:16:36;;;;;;;87.93;79.65;;;22.80;99.90;;;;;;5041360;28;20203;-53
2022/05/24 10:19:02;;;;;;;105.80;92.22;;;;;;;;;;5047432;28;20304;-53
2022/05/24 10:21:31;;;;;;;96.72;86.65;;;22.70;99.90;;;;;;5044939;28;20248;-53
2022/05/24 10:24:35;;;;;;;116.53;90.38;;;22.40;1.00;;;;;;5039964;28;20296;-53
2022/05/24 10:27:18;;;;;;;93.63;83.03;;;22.60;1.00;;;;;;5043050;28;20298;-55
2022/05/24 10:29:54;;;;;;;104.10;88.95;;;22.60;90.10;;;;;;5048276;28;20183;-53
2022/05/24 10:38:54;;;;;;;95.47;82.38;;;22.60;99.90;;;;;;5020642;28;20269;-53
2022/05/24 10:41:26;;;;;;;92.32;83.65;;;22.20;99.90;;;;;;5046471;28;20570;-53
2022/05/24 10:44:15;;;;;;;98.28;88.95;;;22.50;99.90;;;;;;5048310;28;20209;-53
2022/05/24 10:46:43;;;;;;;98.70;88.45;;;;;;;;;;5044269;28;20593;-53
2022/05/24 10:49:30;;;;;;;119.88;103.63;;;23.00;1.00;;;;;;5044586;28;20636;-53
2022/05/24 10:52:11;;;;;;;95.25;85.75;;;23.00;1.00;;;;;;5037790;28;20207;-53
2022/05/24 10:54:53;;;;;;;116.03;95.60;;;23.00;1.00;;;;;;5047460;28;20330;-53
2022/05/24 10:57:24;;;;;;;118.05;103.47;;;22.80;1.00;;;;;;5048666;28;20211;-53
2022/05/24 10:59:55;;;;;;;95.55;87.15;;;23.00;1.00;;;;;;5051084;28;20215;-53
2022/05/24 11:02:41;;;;;;;112.35;100.85;;;23.40;99.90;;;;;;5051860;28;20618;-53
2022/05/24 11:05:20;;;;;;;127.25;103.60;;;23.10;53.50;;;;;;5054043;28;20285;-53
2022/05/24 11:07:50;;;;;;;111.65;100.22;;;23.20;1.00;;;;;;5045997;28;20216;-53
2022/05/24 11:10:26;;;;;;;144.85;107.97;;;23.20;1.00;;;;;;5050301;28;20401;-53
2022/05/24 11:12:57;;;;;;;129.30;115.68;;;23.60;99.90;;;;;;5050458;28;20215;-53
2022/05/24 11:15:39;;;;;;;113.35;102.30;;;23.90;1.00;;;;;;5051070;28;20242;-53
2022/05/24 11:18:18;;;;;;;118.65;106.75;;;23.60;69.30;;;;;;5050417;28;20219;-53
2022/05/24 11:21:06;;;;;;;123.15;109.70;;;23.80;99.90;;;;;;5049070;28;20686;-53
2022/05/24 11:23:38;;;;;;;106.03;96.90;;;23.90;99.90;;;;;;5055825;28;20202;-53
2022/05/24 11:26:18;;;;;;;124.70;111.82;;;24.00;1.00;;;;;;5051286;28;20199;-53
2022/05/24 11:28:50;;;;;;;131.73;119.35;;;24.50;99.90;;;;;;5048945;28;20249;-53
2022/05/24 11:31:26;;;;;;;131.93;118.20;;;24.20;89.10;;;;;;5050697;28;20253;-53
2022/05/24 11:33:53;;;;;;;137.15;123.82;;;24.90;99.90;;;;;;5050128;28;20763;-53
2022/05/24 11:36:45;;;;;;;129.45;116.88;;;24.40;99.90;;;;;;5041990;28;20298;-54
2022/05/24 11:39:24;;;;;;;158.18;138.80;;;24.70;99.90;;;;;;5043021;28;20276;-54
2022/05/24 11:41:50;;;;;;;147.32;132.35;;;;;;;;;;5049240;28;20269;-54
2022/05/24 11:44:34;;;;;;;154.93;139.80;;;24.80;99.90;;;;;;5049598;28;20255;-53
2022/05/24 11:47:00;;;;;;;150.77;135.75;;;;;;;;;;5050361;28;20239;-54
2022/05/24 11:49:27;;;;;;;152.77;137.77;;;;;;;;;;5049958;28;20211;-54
2022/05/24 11:51:55;;;;;;;159.95;143.18;;;24.70;1.00;;;;;;5050134;28;20227;-54
2022/05/24 11:54:24;;;;;;;155.00;138.93;;;;;;;;;;5050150;28;20219;-54
2022/05/24 11:57:02;;;;;;;149.43;134.98;;;24.60;99.90;;;;;;5049973;28;20246;-54
2022/05/24 11:59:39;;;;;;;137.93;124.90;;;24.70;99.90;;;;;;5050284;28;20202;-54
2022/05/24 12:02:20;;;;;;;154.63;137.15;;;24.50;1.00;;;;;;5031249;28;20214;-54
2022/05/24 12:08:22;;;;;;;155.35;139.48;;;24.30;99.90;;;;;;5044715;28;20260;-54
2022/05/24 12:11:10;;;;;;;139.75;125.05;;;24.30;99.90;;;;;;5049405;28;20211;-54
2022/05/24 12:13:54;;;;;;;147.35;131.65;;;24.00;99.90;;;;;;5048987;28;20211;-54
2022/05/24 12:16:37;;;;;;;146.65;129.00;;;24.00;99.90;;;;;;5049193;28;20239;-54
2022/05/24 12:19:04;;;;;;;151.00;134.00;;;24.10;99.90;;;;;;5030869;28;20215;-54
2022/05/24 12:21:42;;;;;;;136.73;123.20;;;24.20;99.90;;;;;;5040811;28;20586;-54
2022/05/24 12:24:32;;;;;;;140.85;126.90;;;24.50;99.90;;;;;;5036099;28;20309;-54
2022/05/24 12:27:15;;;;;;;132.13;118.50;;;24.40;99.90;;;;;;5041261;28;20227;-54
2022/05/24 12:29:43;;;;;;;134.70;121.57;;;24.70;99.90;;;;;;5029298;28;20234;-54
2022/05/24 12:32:09;;;;;;;150.43;134.75;;;24.90;99.90;;;;;;5044886;28;20186;-53
2022/05/24 12:34:35;;;;;;;158.25;142.43;;;25.20;1.00;;;;;;5046667;28;20211;-54
2022/05/24 12:37:17;;;;;;;164.00;147.52;;;25.50;99.90;;;;;;5048553;28;20250;-54
2022/05/24 12:40:05;;;;;;;149.27;134.65;;;25.20;99.90;;;;;;5048606;28;20241;-54
2022/05/24 12:42:31;;;;;;;161.60;146.05;;;;;;;;;;5043476;28;20265;-54
2022/05/24 12:45:00;;;;;;;145.18;129.93;;;25.10;99.90;;;;;;5047478;28;20615;-57
2022/05/24 12:47:26;;;;;;;144.32;130.93;;;24.80;99.90;;;;;;5048419;28;20195;-54
2022/05/24 12:49:56;;;;;;;181.02;158.77;;;25.30;71.10;;;;;;5045857;28;20290;-54
2022/05/24 12:52:27;;;;;;;176.65;155.18;;;25.30;99.90;;;;;;5037106;28;20243;-54
2022/05/24 12:54:55;;;;;;;194.00;163.32;;;25.50;99.90;;;;;;5048640;28;20225;-54
2022/05/24 12:57:32;;;;;;;192.60;169.52;;;25.60;48.30;;;;;;5047185;28;20272;-54
2022/05/24 13:00:08;;;;;;;175.60;157.60;;;26.00;99.90;;;;;;5046506;28;20472;-54
2022/05/24 13:02:44;;;;;;;187.27;168.32;;;25.90;99.90;;;;;;5044860;28;20188;-54
2022/05/24 13:05:21;;;;;;;190.10;169.75;;;26.40;99.90;;;;;;5049701;28;20560;-54
2022/05/24 13:07:53;;;;;;;192.93;173.48;;;27.10;1.00;;;;;;5044093;28;20215;-54
2022/05/24 13:10:19;;;;;;;193.13;173.88;;;26.90;1.00;;;;;;5039335;28;20684;-54
2022/05/24 13:12:46;;;;;;;197.10;177.02;;;26.60;1.00;;;;;;5040554;28;20312;-54
2022/05/24 13:15:17;;;;;;;222.13;188.18;;;26.40;91.90;;;;;;5046464;28;20199;-54
2022/05/24 13:17:45;;;;;;;184.32;166.00;;;26.50;1.00;;;;;;5047574;28;20204;-54
2022/05/24 13:20:28;;;;;;;187.18;168.40;;;26.70;24.80;;;;;;5045480;28;20207;-54
2022/05/24 13:23:03;;;;;;;185.68;167.57;;;26.90;1.00;;;;;;5046058;28;20200;-54
2022/05/24 13:25:29;;;;;;;211.63;189.13;;;;;;;;;;5047486;28;20304;-54
2022/05/24 13:28:01;;;;;;;186.57;169.05;;;26.90;1.00;;;;;;5047880;28;20247;-54
2022/05/24 13:33:48;;;;;;;236.75;205.75;;;27.10;99.90;;;;;;5040823;28;20302;-54
2022/05/24 13:36:20;;;;;;;212.32;191.70;;;27.80;99.90;;;;;;5040050;28;20968;-54
2022/05/24 13:39:06;;;;;;;241.82;216.00;;;27.90;1.00;;;;;;5046392;28;20269;-54
2022/05/24 13:41:41;;;;;;;223.20;200.13;;;28.00;1.00;;;;;;5045321;28;20208;-54
2022/05/24 13:44:23;;;;;;;199.65;181.57;;;27.90;1.00;;;;;;5044145;28;20172;-54
2022/05/24 13:47:00;;;;;;;206.77;188.93;;;27.70;99.90;;;;;;5034953;28;20255;-54
2022/05/24 13:49:47;;;;;;;233.25;208.20;;;27.70;1.00;;;;;;5036825;28;20466;-55
2022/05/24 13:52:22;;;;;;;224.30;201.93;;;27.50;1.00;;;;;;5040357;28;20203;-54
2022/05/24 13:54:50;;;;;;;229.27;206.25;;;27.70;1.00;;;;;;5042988;28;20224;-54
2022/05/24 13:57:28;;;;;;;235.35;210.07;;;27.90;1.00;;;;;;5038682;28;20660;-54
2022/05/24 14:00:08;;;;;;;219.75;197.45;;;28.00;1.00;;;;;;5043864;28;20303;-54
2022/05/24 14:02:34;;;;;;;214.15;194.75;;;28.20;99.90;;;;;;5038680;28;20199;-54